createdAt,value
2022-09-15T00:00:59.265Z,74.29
2022-09-15T00:03:25.911Z,77.58
2022-09-15T00:05:55.710Z,76.73
2022-09-15T00:08:23.272Z,75.04
2022-09-15T00:11:19.297Z,77.89
2022-09-15T00:13:47.188Z,76.74
2022-09-15T00:16:42.999Z,79.49
2022-09-15T00:26:37.374Z,76.48
2022-09-15T00:33:13.339Z,72.50
2022-09-15T00:35:44.937Z,71.42
2022-09-15T00:38:15.498Z,71.16
2022-09-15T00:47:19.685Z,69.29
2022-09-15T00:49:55.852Z,71.56
2022-09-15T00:57:07.193Z,70.64
2022-09-15T01:07:02.383Z,70.44
2022-09-15T01:10:02.130Z,69.84
2022-09-15T01:12:28.752Z,69.67
2022-09-15T01:14:55.443Z,69.80
2022-09-15T01:17:52.046Z,71.25
2022-09-15T01:20:37.253Z,71.09
2022-09-15T01:23:28.533Z,72.18
2022-09-15T01:37:30.901Z,74.55
2022-09-15T01:40:08.614Z,74.99
2022-09-15T01:46:12.337Z,76.01
2022-09-15T01:49:20.988Z,75.31
2022-09-15T01:52:06.990Z,75.57
2022-09-15T01:54:56.336Z,75.75
2022-09-15T01:57:29.124Z,74.55
2022-09-15T01:59:56.630Z,73.95
2022-09-15T02:02:42.836Z,76.30
2022-09-15T02:05:40.963Z,75.75
2022-09-15T02:12:27.191Z,73.89
2022-09-15T02:14:59.246Z,72.60
2022-09-15T02:18:25.819Z,72.66
2022-09-15T02:21:59.616Z,72.63
2022-09-15T02:24:36.982Z,73.46
2022-09-15T02:27:37.363Z,74.22
2022-09-15T02:33:57.357Z,73.01
2022-09-15T02:39:39.353Z,73.62
2022-09-15T02:42:25.642Z,73.89
2022-09-15T02:45:20.364Z,74.67
2022-09-15T02:47:47.187Z,71.90
2022-09-15T02:50:23.363Z,73.94
2022-09-15T02:56:32.493Z,72.24
2022-09-15T02:59:08.642Z,72.77
2022-09-15T03:01:35.545Z,75.92
2022-09-15T03:04:04.187Z,73.46
2022-09-15T03:06:31.663Z,72.28
2022-09-15T03:08:59.402Z,71.62
2022-09-15T03:11:28.307Z,73.83
2022-09-15T03:14:03.284Z,72.22
2022-09-15T03:16:32.871Z,73.07
2022-09-15T03:19:01.316Z,74.36
2022-09-15T03:21:29.974Z,74.94
2022-09-15T03:24:14.650Z,72.70
2022-09-15T03:27:07.521Z,72.84
2022-09-15T03:34:13.683Z,72.65
2022-09-15T03:45:59.906Z,73.26
2022-09-15T04:00:06.845Z,75.16
2022-09-15T04:03:59.323Z,74.29
2022-09-15T04:06:27.120Z,75.90
2022-09-15T04:09:06.182Z,75.93
2022-09-15T04:15:30.005Z,76.70
2022-09-15T04:18:34.051Z,73.85
2022-09-15T04:25:22.129Z,73.63
2022-09-15T04:34:49.022Z,72.64
2022-09-15T04:37:32.276Z,71.66
2022-09-15T04:43:54.295Z,70.46
2022-09-15T04:46:54.439Z,71.17
2022-09-15T04:49:35.930Z,71.15
2022-09-15T04:52:06.626Z,71.75
2022-09-15T04:54:37.829Z,71.62
2022-09-15T04:57:04.570Z,72.41
2022-09-15T04:59:37.589Z,73.93
2022-09-15T05:05:38.677Z,71.38
2022-09-15T05:08:06.357Z,73.80
2022-09-15T05:10:48.249Z,71.91
2022-09-15T05:13:35.827Z,72.62
2022-09-15T05:16:10.641Z,72.54
2022-09-15T05:19:23.315Z,72.57
2022-09-15T05:26:07.302Z,74.58
2022-09-15T05:29:18.014Z,74.35
2022-09-15T05:32:36.281Z,75.62
2022-09-15T05:38:53.873Z,76.41
2022-09-15T05:41:48.824Z,80.47
2022-09-15T05:44:15.736Z,79.24
2022-09-15T05:50:24.870Z,78.23
2022-09-15T06:02:58.964Z,77.29
2022-09-15T06:05:44.436Z,77.49
2022-09-15T06:08:34.004Z,77.78
2022-09-15T06:11:26.728Z,77.59
2022-09-15T06:13:53.441Z,78.30
2022-09-15T06:16:38.491Z,78.13
2022-09-15T06:19:13.705Z,78.73
2022-09-15T06:22:12.886Z,77.77
2022-09-15T06:24:41.223Z,77.93
2022-09-15T06:27:07.876Z,77.75
2022-09-15T06:33:28.447Z,78.14
2022-09-15T06:35:55.051Z,76.58
2022-09-15T06:38:22.233Z,76.06
2022-09-15T06:40:59.614Z,79.60
2022-09-15T06:43:26.779Z,76.35
2022-09-15T06:45:53.506Z,74.52
2022-09-15T06:48:24.688Z,76.37
2022-09-15T06:50:55.142Z,76.44
2022-09-15T06:53:22.399Z,75.51
2022-09-15T06:55:51.655Z,73.53
2022-09-15T06:58:18.365Z,72.62
2022-09-15T07:01:22.789Z,71.50
2022-09-15T07:08:26.817Z,72.67
2022-09-15T07:10:56.437Z,72.00
2022-09-15T07:13:24.728Z,71.19
2022-09-15T07:15:54.336Z,69.20
2022-09-15T07:18:21.933Z,69.78
2022-09-15T07:20:49.286Z,70.19
2022-09-15T07:23:16.580Z,70.80
2022-09-15T07:25:43.747Z,68.85
2022-09-15T07:28:14.229Z,68.08
2022-09-15T07:30:42.738Z,67.17
2022-09-15T07:33:14.579Z,67.14
2022-09-15T07:35:43.291Z,67.46
2022-09-15T07:38:10.212Z,66.95
2022-09-15T07:40:38.082Z,68.69
2022-09-15T07:43:06.547Z,68.48
2022-09-15T07:45:34.583Z,71.09
2022-09-15T07:48:01.490Z,68.91
2022-09-15T07:50:28.097Z,68.33
2022-09-15T07:52:57.946Z,68.41
2022-09-15T07:55:24.617Z,68.12
2022-09-15T07:58:01.565Z,68.63
2022-09-15T08:00:28.294Z,68.40
2022-09-15T08:02:56.235Z,67.60
2022-09-15T08:05:24.214Z,66.91
2022-09-15T08:07:50.840Z,67.79
2022-09-15T08:10:17.647Z,66.28
2022-09-15T08:12:44.235Z,64.43
2022-09-15T08:15:10.896Z,64.86
2022-09-15T08:17:37.537Z,64.60
2022-09-15T08:20:04.575Z,65.01
2022-09-15T08:22:31.235Z,65.44
2022-09-15T08:24:57.824Z,65.41
2022-09-15T08:27:24.507Z,64.76
2022-09-15T08:29:51.494Z,64.54
2022-09-15T08:32:18.099Z,63.30
2022-09-15T08:34:44.676Z,60.83
2022-09-15T08:37:11.531Z,61.82
2022-09-15T08:39:38.196Z,60.45
2022-09-15T08:42:06.055Z,59.27
2022-09-15T08:44:44.439Z,58.50
2022-09-15T08:47:31.691Z,59.23
2022-09-15T08:50:27.863Z,59.47
2022-09-15T08:53:03.137Z,59.66
2022-09-15T08:55:48.135Z,59.34
2022-09-15T08:58:18.924Z,59.54
2022-09-15T09:00:48.530Z,57.75
2022-09-15T09:03:42.416Z,58.68
2022-09-15T09:06:09.034Z,58.60
2022-09-15T09:08:47.735Z,59.01
2022-09-15T09:11:40.808Z,58.08
2022-09-15T09:14:19.542Z,57.23
2022-09-15T09:16:55.060Z,61.26
2022-09-15T09:19:21.622Z,59.57
2022-09-15T09:22:14.796Z,61.28
2022-09-15T09:24:50.149Z,59.96
2022-09-15T09:27:22.146Z,61.20
2022-09-15T09:29:57.697Z,60.93
2022-09-15T09:32:27.099Z,61.90
2022-09-15T09:35:24.623Z,61.39
2022-09-15T09:37:53.338Z,61.15
2022-09-15T09:40:21.054Z,60.53
2022-09-15T09:42:48.600Z,63.20
2022-09-15T09:45:17.935Z,63.49
2022-09-15T09:47:44.733Z,62.87
2022-09-15T09:50:40.863Z,62.45
2022-09-15T09:53:33.957Z,61.12
2022-09-15T09:56:26.736Z,61.04
2022-09-15T09:58:54.824Z,65.02
2022-09-15T10:01:25.083Z,61.58
2022-09-15T10:04:17.859Z,62.83
2022-09-15T10:06:46.566Z,60.99
2022-09-15T10:09:18.030Z,61.57
2022-09-15T10:11:48.472Z,58.48
2022-09-15T10:14:35.543Z,59.37
2022-09-15T10:17:21.901Z,60.05
2022-09-15T10:19:54.827Z,58.82
2022-09-15T10:22:35.408Z,60.28
2022-09-15T10:25:21.761Z,57.04
2022-09-15T10:28:10.346Z,60.41
2022-09-15T10:30:37.591Z,57.67
2022-09-15T10:33:25.631Z,56.71
2022-09-15T10:35:55.347Z,57.19
2022-09-15T10:38:40.077Z,58.22
2022-09-15T10:41:33.634Z,58.53
2022-09-15T10:44:32.072Z,60.53
2022-09-15T10:47:26.072Z,59.97
2022-09-15T10:50:25.732Z,58.86
2022-09-15T10:53:16.744Z,60.03
2022-09-15T10:56:04.921Z,57.28
2022-09-15T10:59:09.328Z,58.43
2022-09-15T11:02:07.530Z,57.13
2022-09-15T11:04:46.478Z,57.48
2022-09-15T11:07:39.520Z,57.18
2022-09-15T11:10:16.613Z,59.26
2022-09-15T11:13:13.227Z,57.80
2022-09-15T11:16:04.637Z,58.04
2022-09-15T11:19:26.855Z,58.51
2022-09-15T11:22:03.134Z,57.84
2022-09-15T11:24:50.555Z,61.56
2022-09-15T11:27:35.381Z,61.81
2022-09-15T11:30:13.851Z,61.06
2022-09-15T11:33:02.831Z,57.98
2022-09-15T11:35:32.549Z,58.11
2022-09-15T11:38:19.295Z,56.90
2022-09-15T11:41:02.634Z,57.55
2022-09-15T11:43:29.282Z,58.33
2022-09-15T11:45:59.277Z,59.08
2022-09-15T11:48:45.329Z,57.16
2022-09-15T11:51:16.399Z,57.29
2022-09-15T11:54:02.651Z,58.82
2022-09-15T11:56:46.428Z,58.70
2022-09-15T11:59:18.763Z,59.98
2022-09-15T12:02:11.289Z,60.66
2022-09-15T12:04:55.498Z,61.87
2022-09-15T12:07:31.118Z,62.10
2022-09-15T12:10:14.034Z,62.36
2022-09-15T12:12:44.342Z,64.67
2022-09-15T12:15:18.054Z,62.62
2022-09-15T12:17:53.699Z,63.83
2022-09-15T12:20:46.729Z,63.02
2022-09-15T12:26:54.589Z,63.37
2022-09-15T12:29:27.173Z,64.82
2022-09-15T12:32:19.959Z,64.76
2022-09-15T12:34:57.462Z,67.14
2022-09-15T12:37:29.807Z,68.32
2022-09-15T12:39:56.784Z,69.30
2022-09-15T12:42:27.697Z,72.03
2022-09-15T12:45:00.057Z,71.92
2022-09-15T12:47:38.770Z,70.82
2022-09-15T12:50:30.731Z,72.57
2022-09-15T12:53:02.235Z,72.80
2022-09-15T12:55:37.691Z,74.58
2022-09-15T12:58:18.210Z,76.02
2022-09-15T13:01:13.870Z,75.64
2022-09-15T13:06:10.298Z,74.20
2022-09-15T13:08:36.874Z,72.72
2022-09-15T13:11:11.613Z,74.13
2022-09-15T13:14:02.267Z,72.07
2022-09-15T13:17:07.651Z,72.41
2022-09-15T13:19:34.294Z,68.37
2022-09-15T13:22:12.164Z,67.37
2022-09-15T13:25:00.772Z,66.44
2022-09-15T13:27:38.333Z,69.05
2022-09-15T13:30:26.312Z,66.26
2022-09-15T13:33:17.712Z,65.27
2022-09-15T13:36:15.061Z,64.09
2022-09-15T13:39:03.039Z,62.98
2022-09-15T13:42:01.777Z,63.33
2022-09-15T13:45:06.390Z,61.84
2022-09-15T13:47:51.102Z,61.25
2022-09-15T13:50:40.328Z,64.48
2022-09-15T13:53:36.853Z,60.69
2022-09-15T13:56:09.789Z,64.66
2022-09-15T13:58:58.286Z,61.73
2022-09-15T14:01:26.592Z,63.74
2022-09-15T14:03:59.166Z,60.14
2022-09-15T14:06:38.787Z,64.05
2022-09-15T14:09:25.817Z,63.38
2022-09-15T14:11:57.873Z,62.22
2022-09-15T14:14:33.077Z,60.79
2022-09-15T14:16:59.848Z,61.36
2022-09-15T14:19:38.307Z,60.20
2022-09-15T14:22:20.025Z,61.62
2022-09-15T14:24:47.440Z,60.73
2022-09-15T14:27:22.503Z,60.46
2022-09-15T14:29:52.420Z,62.13
2022-09-15T14:32:19.110Z,59.57
2022-09-15T14:40:29.259Z,59.10
2022-09-15T14:43:31.155Z,60.02
2022-09-15T14:46:10.344Z,60.62
2022-09-15T14:48:37.007Z,62.71
2022-09-15T14:51:25.527Z,63.60
2022-09-15T14:53:57.857Z,62.41
2022-09-15T14:56:32.973Z,61.94
2022-09-15T14:59:06.586Z,64.85
2022-09-15T15:01:52.309Z,64.65
2022-09-15T15:04:39.989Z,64.59
2022-09-15T15:07:31.688Z,64.50
2022-09-15T15:10:03.951Z,65.53
2022-09-15T15:12:32.128Z,64.85
2022-09-15T15:15:00.244Z,63.54
2022-09-15T15:17:37.213Z,62.46
2022-09-15T15:20:09.851Z,65.17
2022-09-15T15:22:38.511Z,64.40
2022-09-15T15:25:22.638Z,66.21
2022-09-15T15:27:57.229Z,65.99
2022-09-15T15:30:28.784Z,66.34
2022-09-15T15:33:19.691Z,67.93
2022-09-15T15:35:59.853Z,66.81
2022-09-15T15:38:28.580Z,65.37
2022-09-15T15:41:07.381Z,66.65
2022-09-15T15:43:35.027Z,70.45
2022-09-15T15:46:06.002Z,68.23
2022-09-15T15:48:38.209Z,66.73
2022-09-15T15:51:06.663Z,67.32
2022-09-15T15:53:35.367Z,68.21
2022-09-15T15:56:02.162Z,68.97
2022-09-15T15:58:28.826Z,69.94
2022-09-15T16:00:57.932Z,72.32
2022-09-15T16:03:25.442Z,74.47
2022-09-15T16:05:59.416Z,73.62
2022-09-15T16:08:35.312Z,73.83
2022-09-15T16:11:03.106Z,72.82
2022-09-15T16:13:30.573Z,71.04
2022-09-15T16:15:59.613Z,73.47
2022-09-15T16:18:27.632Z,72.89
2022-09-15T16:20:54.572Z,71.43
2022-09-15T16:23:23.166Z,70.63
2022-09-15T16:26:02.807Z,71.34
2022-09-15T16:28:29.971Z,72.30
2022-09-15T16:30:57.511Z,73.32
2022-09-15T16:33:27.294Z,74.19
2022-09-15T16:35:57.127Z,72.62
2022-09-15T16:38:24.054Z,73.57
2022-09-15T16:40:51.810Z,72.30
2022-09-15T16:43:21.449Z,72.27
2022-09-15T16:45:49.628Z,73.74
2022-09-15T16:48:16.707Z,74.04
2022-09-15T16:51:01.691Z,74.29
2022-09-15T16:53:32.222Z,76.89
2022-09-15T16:55:58.887Z,75.54
2022-09-15T16:58:34.501Z,74.82
2022-09-15T17:01:03.931Z,74.88
2022-09-15T17:03:30.853Z,74.85
2022-09-15T17:06:00.722Z,74.22
2022-09-15T17:08:30.180Z,75.13
2022-09-15T17:11:00.094Z,74.29
2022-09-15T17:13:31.996Z,75.09
2022-09-15T17:16:02.709Z,75.23
2022-09-15T17:18:29.718Z,76.59
2022-09-15T17:20:56.721Z,77.29
2022-09-15T17:23:24.459Z,76.22
2022-09-15T17:25:53.284Z,76.73
2022-09-15T17:28:26.093Z,75.84
2022-09-15T17:31:00.667Z,75.61
2022-09-15T17:33:29.685Z,76.91
2022-09-15T17:35:57.208Z,77.14
2022-09-15T17:38:23.844Z,77.12
2022-09-15T17:40:51.977Z,79.39
2022-09-15T17:43:21.042Z,78.96
2022-09-15T17:45:49.274Z,79.46
2022-09-15T17:48:16.817Z,78.02
2022-09-15T17:50:44.178Z,75.63
2022-09-15T17:53:19.328Z,77.35
2022-09-15T17:55:45.879Z,76.76
2022-09-15T17:58:12.480Z,77.45
2022-09-15T18:00:41.405Z,76.33
2022-09-15T18:03:14.367Z,78.63
2022-09-15T18:05:41.237Z,77.36
2022-09-15T18:08:09.863Z,76.18
2022-09-15T18:10:36.947Z,74.54
2022-09-15T18:13:05.445Z,76.40
2022-09-15T18:15:34.590Z,76.70
2022-09-15T18:18:04.133Z,76.57
2022-09-15T18:20:32.901Z,75.83
2022-09-15T18:22:59.553Z,74.22
2022-09-15T18:25:28.961Z,72.74
2022-09-15T18:27:56.612Z,74.21
2022-09-15T18:30:25.692Z,76.80
2022-09-15T18:32:52.441Z,76.65
2022-09-15T18:35:21.098Z,76.21
2022-09-15T18:37:53.603Z,76.16
2022-09-15T18:40:47.089Z,76.02
2022-09-15T18:43:13.953Z,75.13
2022-09-15T18:45:41.469Z,75.07
2022-09-15T18:48:12.692Z,75.32
2022-09-15T18:50:41.329Z,73.74
2022-09-15T18:53:08.737Z,75.07
2022-09-15T18:55:35.715Z,75.48
2022-09-15T18:58:02.833Z,75.17
2022-09-15T19:00:30.239Z,76.40
2022-09-15T19:03:01.413Z,76.71
2022-09-15T19:05:30.145Z,76.72
2022-09-15T19:07:57.590Z,76.26
2022-09-15T19:10:26.817Z,77.30
2022-09-15T19:12:56.964Z,76.51
2022-09-15T19:15:25.979Z,76.75
2022-09-15T19:17:52.666Z,75.48
2022-09-15T19:20:19.394Z,74.90
2022-09-15T19:22:46.238Z,76.10
2022-09-15T19:25:14.087Z,75.34
2022-09-15T19:27:41.103Z,75.77
2022-09-15T19:30:09.736Z,74.85
2022-09-15T19:32:36.465Z,75.63
2022-09-15T19:35:09.673Z,76.04
2022-09-15T19:37:37.831Z,74.94
2022-09-15T19:40:07.618Z,74.08
2022-09-15T19:42:34.368Z,74.98
2022-09-15T19:45:01.080Z,75.64
2022-09-15T19:47:27.798Z,75.02
2022-09-15T19:49:54.662Z,75.36
2022-09-15T19:52:21.492Z,75.38
2022-09-15T19:54:48.250Z,75.77
2022-09-15T19:57:15.448Z,75.88
2022-09-15T20:00:12.427Z,77.81
2022-09-15T20:02:56.056Z,77.05
2022-09-15T20:05:22.730Z,77.07
2022-09-15T20:07:49.529Z,77.97
2022-09-15T20:10:18.324Z,77.45
2022-09-15T20:12:44.994Z,77.68
2022-09-15T20:15:11.656Z,78.17
2022-09-15T20:17:38.369Z,76.88
2022-09-15T20:20:05.453Z,76.70
2022-09-15T20:22:33.929Z,78.11
2022-09-15T20:25:00.593Z,77.15
2022-09-15T20:27:27.209Z,77.31
2022-09-15T20:29:53.911Z,78.52
2022-09-15T20:32:22.880Z,77.34
2022-09-15T20:34:56.196Z,78.81
2022-09-15T20:37:22.870Z,75.45
2022-09-15T20:39:49.593Z,74.35
2022-09-15T20:42:16.488Z,73.56
2022-09-15T20:44:45.644Z,74.01
2022-09-15T20:47:12.248Z,74.16
2022-09-15T20:49:38.846Z,73.45
2022-09-15T20:52:08.259Z,73.94
2022-09-15T20:54:35.066Z,73.92
2022-09-15T20:57:01.947Z,73.02
2022-09-15T20:59:30.909Z,73.59
2022-09-15T21:01:59.174Z,75.18
2022-09-15T21:04:25.865Z,74.59
2022-09-15T21:06:52.458Z,76.54
2022-09-15T21:09:21.398Z,76.12
2022-09-15T21:11:52.730Z,77.21
2022-09-15T21:14:22.888Z,77.53
2022-09-15T21:16:51.896Z,77.81
2022-09-15T21:19:18.560Z,77.04
2022-09-15T21:21:45.200Z,77.36
2022-09-15T21:24:11.875Z,78.10
2022-09-15T21:26:41.150Z,79.77
2022-09-15T21:29:08.360Z,79.17
2022-09-15T21:31:35.016Z,78.18
2022-09-15T21:34:01.667Z,79.15
2022-09-15T21:36:30.555Z,78.00
2022-09-15T21:38:58.744Z,75.25
2022-09-15T21:41:28.043Z,73.27
2022-09-15T21:43:55.441Z,73.10
2022-09-15T21:46:24.779Z,72.83
2022-09-15T21:48:51.627Z,74.07
2022-09-15T21:51:24.631Z,76.18
2022-09-15T21:53:53.998Z,75.56
2022-09-15T21:56:22.690Z,74.22
2022-09-15T21:58:49.406Z,74.96
2022-09-15T22:01:21.600Z,77.11
2022-09-15T22:03:49.784Z,75.34
2022-09-15T22:06:16.455Z,74.18
2022-09-15T22:08:44.113Z,74.37
2022-09-15T22:11:11.047Z,73.86
2022-09-15T22:13:41.490Z,74.24
2022-09-15T22:16:12.690Z,77.84
2022-09-15T22:18:41.175Z,81.32
2022-09-15T22:21:14.833Z,80.50
2022-09-15T22:23:43.762Z,82.05
2022-09-15T22:26:14.432Z,82.20
2022-09-15T22:28:41.453Z,80.76
2022-09-15T22:31:10.975Z,80.69
2022-09-15T22:33:39.111Z,81.34
2022-09-15T22:36:09.763Z,79.22
2022-09-15T22:38:36.491Z,75.91
2022-09-15T22:41:06.529Z,79.19
2022-09-15T22:43:33.200Z,78.26
2022-09-15T22:45:59.849Z,76.27
2022-09-15T22:48:26.602Z,73.89
2022-09-15T22:50:53.759Z,73.92
2022-09-15T22:53:20.341Z,78.68
2022-09-15T22:55:47.000Z,81.30
2022-09-15T22:58:13.705Z,81.92
2022-09-15T23:00:40.369Z,83.90
2022-09-15T23:03:08.499Z,85.18
2022-09-15T23:05:35.262Z,83.93
2022-09-15T23:08:02.386Z,80.88
2022-09-15T23:10:30.771Z,79.96
2022-09-15T23:13:00.500Z,78.18
2022-09-15T23:15:27.076Z,79.39
2022-09-15T23:17:53.670Z,79.60
2022-09-15T23:20:20.273Z,81.87
2022-09-15T23:22:46.907Z,79.97
2022-09-15T23:25:13.536Z,78.41
2022-09-15T23:27:40.179Z,75.27
2022-09-15T23:30:07.250Z,75.17
2022-09-15T23:32:33.911Z,77.00
2022-09-15T23:35:00.500Z,80.13
2022-09-15T23:37:27.179Z,78.75
2022-09-15T23:39:53.820Z,75.49
2022-09-15T23:42:20.442Z,75.15
2022-09-15T23:44:47.361Z,74.34
2022-09-15T23:47:14.014Z,75.22
2022-09-15T23:49:40.623Z,77.93
2022-09-15T23:52:07.260Z,79.91
2022-09-15T23:54:33.888Z,81.40
2022-09-15T23:57:00.478Z,80.05
2022-09-15T23:59:27.118Z,80.88
